Webster, NY (14580)

11:04 AM EDT on June 27, 2017 (GMT -0400)
Webster Fire Department - Sta. 1 | | Change Station

Elev 465 ft 43.21 °N, 77.43 °W | Updated 8 seconds ago

Mostly Cloudy
Mostly Cloudy
62.4 °F
Feels Like 62.4 °F
N
4.0
Wind Variable Wind from NW
Gusts 13.0 mph

Today
High -- | Low -- °F
--% Chance of Precip.
Yesterday
High -- | Low -- °F
Precip. -- in
Pressure 29.96 in
Visibility 10.0 miles
Clouds Mostly Cloudy 3000 ft
Mostly Cloudy 7500 ft
Mostly Cloudy 20000 ft
Dew Point 53 °F
Humidity 72%
Rainfall 0.05 in
Snow Depth Not available.
5:31 AM 8:53 PM
Waxing Crescent, 17% visible
METAR KROC 271454Z 25010KT 10SM BKN030 BKN075 BKN200 17/10 A2995 RMK AO2 LTG DSNT NW SLP145 CB DSNT SW-W MOV E T01720100 58001
Pressure 29.96 in
Visibility 10.0 miles
Clouds Mostly Cloudy 3000 ft
Mostly Cloudy 7500 ft
Mostly Cloudy 20000 ft
Dew Point 53 °F
Humidity 72%
Rainfall 0.05 in
Snow Depth Not available.
5:31 AM 8:53 PM
Waxing Crescent, 17% visible
METAR KROC 271454Z 25010KT 10SM BKN030 BKN075 BKN200 17/10 A2995 RMK AO2 LTG DSNT NW SLP145 CB DSNT SW-W MOV E T01720100 58001

Get Severe Weather Alerts

Thanks for signing up!

Be on the lookout for a verification email in your inbox.

You'll start receiving the daily forecast at 6 AM.

×

10-Day Weather Forecast

Almanac

Astronomy

Jun. 27, 2017 Rise Set
Actual Time
Civil Twilight
Nautical Twilight
Astronomical Twilight
Moon
Length of Visible Light
Length of Day
Tomorrow will be .
, % of the Moon is Illuminated

Today's Extremes

State Highs State Lows

Community

WunderPhotos

Category 6

Welcome to Category 6. This is the collective home for Weather Underground's featured writeups by Dr. Jeff Masters (right), Bob Henson (left), Chris Burt, and other regular contributors.

Nearby

Air Quality

  Air Quality AQ Index Pollutant
Not available.

Snow Depth

Station Depth Elevation

Earthquake Activity

City Distance Mag. Time & Date
Minimum magnitude displayed is 2.5.

Coastal Water Temperatures

Place Temperature

Stations

Nearby Weather Stations

Station Location Temp. Windchill Dew Point Humidity Wind Precip. Elev Updated Type
                   

Watches & Warnings

There are currently no watches in effect.